Meteo Giornale » Osservazioni meteo Italia » Catania-Sigonella

ore: 19:55 - Osservazioni Meteo Catania-Sigonella
Lat. 37° 24' N Lon. 14° 55' E Alt. 22 metri s.l.m.

sereno Europe/Rome

9 °C

Sereno

Temp. 24 Ore

2 °C

17 °C

Nord

5.5 Km/h

Dew point 8 °C

Umidità 93 %

Visibilità  10 Km

Il sole sorge alle ore 06:40

Il sole tramonta alle ore 17:47

Data e Ora Cielo e Fenomeni T °C DP °C Um. % Pres. hPa Vis. km Vento km/h
Oggi h: 19:55 sereno Sereno 9 8 93 1024 10 N 5.5
Oggi h: 18:55 sereno Sereno 10 8 87 1024 10 N 5.5
Oggi h: 16:55 sereno Sereno 14 8 67 1023 10 E 20.3
Oggi h: 15:55 sereno Sereno 15 8 62 1023 10 E 20.3
Oggi h: 14:55 sereno Sereno 16 4 44 1023 10 E 16.7
Oggi h: 12:55 sereno Sereno 17 1 33 1024 10 N 3.7
Oggi h: 10:55 sereno Sereno 14 2 44 1025 10 N 3.7
Oggi h: 09:55 sereno Sereno 13 5 58 1025 10 O/SO 7.4
Oggi h: 08:55 sereno Sereno 11 7 76 1025 10 O/SO 7.4
Oggi h: 07:55 sereno Sereno 6 6 100 1024 10 S/SO 9.3
Oggi h: 06:55 sereno Sereno 3 3 100 1024 10 N 5.5
Oggi h: 05:55 sereno Sereno 2 2 100 1023 10 S 9.3
Oggi h: 04:55 sereno Sereno 3 3 100 1023 10 N 5.5
Oggi h: 03:55 sereno Sereno 4 4 100 1023 10 N 5.5
Oggi h: 02:55 sereno Sereno 5 5 100 1023 10 O 9.3
Oggi h: 01:55 sereno Sereno 6 6 100 1023 10 O 11.1
Oggi h: 00:55 sereno Sereno 8 5 81 1023 10 O 11.1
Ieri h: 23:55 sereno Sereno 8 6 87 1023 10 O/NO 11.1
Ieri h: 22:55 sereno Sereno 10 6 76 1023 10 O/SO 14.8
Ieri h: 21:55 sereno Sereno 9 6 81 1023 10 SO 18.5
Ieri h: 20:55 sereno Sereno 11 5 66 1022 10 O 18.5